Time;durP1;ratioP1;P1;durP2;ratioP2;P2;SDS_P1;SDS_P2;PMS_P1;PMS_P2;Temp;Humidity;BMP_temperature;BMP_pressure;BME280_temperature;BME280_humidity;BME280_pressure;Samples;Min_cycle;Max_cycle;Signal;HPM_P1;HPM_P2
2023/04/11 00:00:12;;;;;;;5.90;4.30;;;;;;;4.23;100.00;96813.51;109568;1255;22518;-86
2023/04/11 00:03:05;;;;;;;4.70;3.50;;;;;;;4.23;100.00;96810.73;109522;1269;23088;-86
2023/04/11 00:05:37;;;;;;;5.10;4.20;;;;;;;4.20;100.00;96816.05;109359;1269;22515;-86
2023/04/11 00:08:08;;;;;;;4.90;4.00;;;;;;;4.12;100.00;96811.14;109240;1264;36005;-86
2023/04/11 00:10:39;;;;;;;5.30;4.00;;;;;;;4.04;100.00;96811.39;109324;1264;24246;-87
2023/04/11 00:13:10;;;;;;;6.40;4.30;;;;;;;3.99;100.00;96809.04;109313;1270;22725;-86
2023/04/11 00:15:42;;;;;;;5.20;3.70;;;;;;;3.97;100.00;96812.29;109302;1270;22633;-87
2023/04/11 00:18:13;;;;;;;5.90;4.10;;;;;;;3.97;100.00;96809.45;109318;1264;45007;-87
2023/04/11 00:20:44;;;;;;;6.00;4.30;;;;;;;4.01;100.00;96810.06;109341;1270;22512;-87
2023/04/11 00:23:15;;;;;;;4.90;4.00;;;;;;;4.06;100.00;96816.44;109231;1264;22557;-86
2023/04/11 00:25:46;;;;;;;4.10;3.40;;;;;;;4.09;100.00;96809.38;109321;1269;22553;-86
2023/04/11 00:28:17;;;;;;;4.30;3.30;;;;;;;4.10;100.00;96806.53;109331;1267;37980;-87
2023/04/11 00:30:48;;;;;;;4.00;3.30;;;;;;;4.11;100.00;96806.30;109325;1270;25571;-87
2023/04/11 00:33:19;;;;;;;5.20;3.70;;;;;;;4.16;100.00;96803.77;109348;1263;24365;-87
2023/04/11 00:35:50;;;;;;;4.60;2.90;;;;;;;4.19;100.00;96795.56;109376;1270;22514;-87
2023/04/11 00:38:21;;;;;;;5.10;3.70;;;;;;;4.16;100.00;96791.69;109290;1259;53582;-87
2023/04/11 00:40:53;;;;;;;5.70;4.10;;;;;;;4.10;100.00;96789.70;109342;1267;24315;-87
2023/04/11 00:43:24;;;;;;;4.90;3.70;;;;;;;4.07;100.00;96783.84;109351;1270;22591;-87
2023/04/11 00:45:56;;;;;;;5.10;3.80;;;;;;;4.07;100.00;96786.52;109341;1270;25259;-87
2023/04/11 00:48:27;;;;;;;4.30;3.20;;;;;;;4.08;100.00;96776.77;109279;1264;66556;-87
2023/04/11 00:50:59;;;;;;;3.80;3.40;;;;;;;4.09;100.00;96778.81;109513;1269;22757;-87
2023/04/11 00:53:31;;;;;;;4.70;3.60;;;;;;;4.09;100.00;96776.55;109340;1262;22515;-87
2023/04/11 00:56:03;;;;;;;4.60;3.40;;;;;;;4.10;100.00;96775.05;109332;1267;22643;-86
2023/04/11 00:58:36;;;;;;;4.20;3.20;;;;;;;4.13;100.00;96771.95;109331;1267;46258;-87
2023/04/11 01:01:09;;;;;;;4.10;3.30;;;;;;;4.20;100.00;96771.85;109298;1266;22514;-87
2023/04/11 01:03:43;;;;;;;4.00;3.00;;;;;;;4.27;100.00;96768.19;109308;1270;22534;-87
2023/04/11 01:06:18;;;;;;;4.80;3.60;;;;;;;4.37;100.00;96765.22;109472;1269;22515;-87
2023/04/11 01:08:50;;;;;;;4.60;3.60;;;;;;;4.37;100.00;96760.61;109328;1270;48496;-87
2023/04/11 01:11:21;;;;;;;4.70;3.50;;;;;;;4.34;100.00;96758.64;109337;1270;23328;-87
2023/04/11 01:13:53;;;;;;;4.10;3.40;;;;;;;4.33;100.00;96754.63;109337;1270;22526;-87
2023/04/11 01:16:24;;;;;;;3.60;3.10;;;;;;;4.32;100.00;96752.58;109359;1263;23783;-87
2023/04/11 01:18:55;;;;;;;4.60;3.20;;;;;;;4.31;100.00;96751.61;109210;1270;37299;-86
2023/04/11 01:21:28;;;;;;;4.50;3.50;;;;;;;4.29;100.00;96748.42;109332;1270;22564;-87
2023/04/11 01:24:02;;;;;;;4.60;3.50;;;;;;;4.28;100.00;96744.38;109346;1270;23342;-86
2023/04/11 01:26:33;;;;;;;4.30;3.60;;;;;;;4.26;100.00;96737.63;109277;1270;22531;-87
2023/04/11 01:29:07;;;;;;;6.10;3.80;;;;;;;4.22;100.00;96737.63;109234;1266;62532;-87
2023/04/11 01:31:38;;;;;;;4.90;3.50;;;;;;;4.18;100.00;96737.04;109362;1267;22517;-87
2023/04/11 01:34:12;;;;;;;4.90;3.60;;;;;;;4.13;100.00;96732.61;109335;1270;22540;-87
2023/04/11 01:36:44;;;;;;;4.70;3.80;;;;;;;4.08;100.00;96728.89;109357;1270;22663;-87
2023/04/11 01:39:15;;;;;;;4.90;3.60;;;;;;;4.03;100.00;96728.00;109191;1270;78027;-87
2023/04/11 01:41:48;;;;;;;4.60;3.70;;;;;;;3.98;100.00;96721.98;109384;1264;22517;-87
2023/04/11 01:44:20;;;;;;;4.00;3.00;;;;;;;3.94;100.00;96716.69;109299;1270;22523;-87
2023/04/11 01:46:51;;;;;;;4.80;3.30;;;;;;;3.95;100.00;96714.80;109359;1267;22522;-86
2023/04/11 01:49:24;;;;;;;4.30;3.50;;;;;;;3.96;100.00;96710.05;109401;1263;49915;-86
2023/04/11 01:51:55;;;;;;;3.50;3.00;;;;;;;3.92;100.00;96711.52;109474;1264;24275;-86
2023/04/11 01:54:27;;;;;;;4.90;3.50;;;;;;;3.87;100.00;96708.39;109421;1265;22605;-86
2023/04/11 01:57:00;;;;;;;4.00;3.30;;;;;;;3.83;100.00;96705.27;109546;1269;22520;-86
2023/04/11 01:59:31;;;;;;;4.90;3.50;;;;;;;3.80;100.00;96703.54;109286;1266;125239;-86
2023/04/11 02:02:04;;;;;;;4.40;3.40;;;;;;;3.77;100.00;96697.95;109353;1270;22538;-86
2023/04/11 02:04:35;;;;;;;4.10;3.40;;;;;;;3.72;100.00;96691.00;109385;1270;22539;-87
2023/04/11 02:07:06;;;;;;;6.10;4.10;;;;;;;3.69;100.00;96695.25;109354;1270;25681;-86
2023/04/11 02:09:37;;;;;;;4.10;3.40;;;;;;;3.66;100.00;96694.14;109331;1270;43267;-86
2023/04/11 02:12:09;;;;;;;4.00;3.40;;;;;;;3.58;100.00;96686.64;109389;1270;26479;-86
2023/04/11 02:14:45;;;;;;;4.10;3.40;;;;;;;3.53;100.00;96684.65;109367;1270;25377;-87
2023/04/11 02:17:17;;;;;;;5.10;3.60;;;;;;;3.51;100.00;96676.27;109432;1270;23871;-86
2023/04/11 02:19:48;;;;;;;3.70;3.30;;;;;;;3.48;100.00;96671.16;109294;1263;37713;-86
2023/04/11 02:22:19;;;;;;;5.90;3.40;;;;;;;3.46;100.00;96666.46;109293;1267;22508;-86
2023/04/11 02:24:51;;;;;;;4.80;3.20;;;;;;;3.41;100.00;96663.39;109376;1269;22519;-86
2023/04/11 02:27:22;;;;;;;4.50;3.60;;;;;;;3.37;100.00;96662.55;109359;1270;22554;-86
2023/04/11 02:29:53;;;;;;;4.30;3.40;;;;;;;3.36;100.00;96659.27;109354;1264;44575;-86
2023/04/11 02:32:26;;;;;;;4.90;3.80;;;;;;;3.34;100.00;96659.35;109287;1264;22527;-86
2023/04/11 02:34:57;;;;;;;4.40;3.60;;;;;;;3.30;100.00;96654.23;109340;1262;25538;-86
2023/04/11 02:37:28;;;;;;;5.20;4.20;;;;;;;3.30;100.00;96655.02;109380;1270;25343;-86
2023/04/11 02:40:00;;;;;;;4.70;3.50;;;;;;;3.31;100.00;96647.13;109202;1262;53873;-86
2023/04/11 02:42:33;;;;;;;5.90;4.10;;;;;;;3.30;100.00;96640.45;109359;1265;22532;-86
2023/04/11 02:45:06;;;;;;;4.40;3.80;;;;;;;3.27;100.00;96642.67;109406;1265;22566;-86
2023/04/11 02:47:37;;;;;;;5.20;3.70;;;;;;;3.25;100.00;96640.52;109336;1269;22545;-86
2023/04/11 02:50:10;;;;;;;6.40;3.90;;;;;;;3.24;100.00;96640.61;109337;1265;53047;-86
2023/04/11 02:52:44;;;;;;;3.90;3.30;;;;;;;3.22;100.00;96638.86;109386;1265;22554;-86
2023/04/11 02:55:15;;;;;;;5.10;4.00;;;;;;;3.21;100.00;96638.39;109289;1270;22562;-86
2023/04/11 02:57:46;;;;;;;5.20;4.20;;;;;;;3.24;100.00;96635.53;109365;1266;62404;-85
2023/04/11 03:00:18;;;;;;;6.80;4.30;;;;;;;3.21;100.00;96631.83;109366;1270;22519;-86
2023/04/11 03:02:49;;;;;;;6.70;4.50;;;;;;;3.17;100.00;96632.07;109365;1270;22541;-86
2023/04/11 03:05:21;;;;;;;5.30;4.20;;;;;;;3.14;100.00;96629.39;109373;1270;22507;-86
2023/04/11 03:07:52;;;;;;;4.20;3.80;;;;;;;3.11;100.00;96629.45;109252;1264;75783;-85
2023/04/11 03:10:25;;;;;;;5.00;4.30;;;;;;;3.08;100.00;96622.44;109295;1269;22528;-86
2023/04/11 03:12:56;;;;;;;6.30;4.20;;;;;;;3.04;100.00;96620.02;109303;1265;25403;-86
2023/04/11 03:15:27;;;;;;;5.70;4.40;;;;;;;3.04;100.00;96616.39;109316;1270;23157;-86
2023/04/11 03:17:58;;;;;;;3.80;3.50;;;;;;;3.03;100.00;96615.70;109449;1264;53220;-86
2023/04/11 03:20:31;;;;;;;4.30;3.80;;;;;;;3.00;100.00;96616.52;109320;1270;22528;-86
2023/04/11 03:23:04;;;;;;;5.60;4.30;;;;;;;2.99;100.00;96616.66;109396;1270;24397;-86
2023/04/11 03:25:36;;;;;;;4.70;4.00;;;;;;;2.98;100.00;96614.77;109327;1270;22522;-86
2023/04/11 03:28:07;;;;;;;5.00;4.10;;;;;;;3.01;100.00;96614.39;109293;1264;53007;-86
2023/04/11 03:30:41;;;;;;;5.50;4.00;;;;;;;3.02;100.00;96613.73;109180;1271;22535;-85
2023/04/11 03:33:12;;;;;;;5.40;4.30;;;;;;;3.03;100.00;96607.10;109314;1262;25460;-86
2023/04/11 03:35:43;;;;;;;4.20;3.40;;;;;;;3.05;100.00;96603.79;109361;1263;22539;-86
2023/04/11 03:38:14;;;;;;;7.40;4.40;;;;;;;3.05;100.00;96607.30;109335;1263;60980;-86
2023/04/11 03:40:45;;;;;;;5.90;3.70;;;;;;;3.04;100.00;96608.27;109335;1263;23442;-86
2023/04/11 03:43:17;;;;;;;3.60;3.20;;;;;;;3.02;100.00;96609.11;109367;1267;25511;-86
2023/04/11 03:45:50;;;;;;;6.70;4.00;;;;;;;2.95;100.00;96610.30;109531;1269;22680;-85
2023/04/11 03:48:25;;;;;;;5.00;3.80;;;;;;;2.93;100.00;96612.19;109310;1270;68986;-86
2023/04/11 03:50:56;;;;;;;4.60;4.00;;;;;;;2.92;100.00;96615.71;109203;1270;23072;-86
2023/04/11 03:53:27;;;;;;;5.30;3.90;;;;;;;2.89;100.00;96613.30;109389;1265;22524;-85
2023/04/11 03:55:58;;;;;;;5.10;4.30;;;;;;;2.87;100.00;96612.75;109383;1264;22514;-87
2023/04/11 03:58:30;;;;;;;4.90;4.20;;;;;;;2.89;100.00;96615.50;109346;1263;38654;-86
2023/04/11 04:01:01;;;;;;;5.90;4.50;;;;;;;2.91;100.00;96611.14;109219;1270;24233;-85
2023/04/11 04:03:32;;;;;;;5.80;3.70;;;;;;;2.91;100.00;96611.51;109405;1264;22520;-86
2023/04/11 04:06:14;;;;;;;5.90;4.70;;;;;;;2.94;100.00;96607.66;109387;1264;25067;-86
2023/04/11 04:08:45;;;;;;;5.90;4.70;;;;;;;2.98;100.00;96603.25;109231;1266;75063;-86
2023/04/11 04:11:16;;;;;;;5.40;4.50;;;;;;;2.98;100.00;96601.20;109308;1270;22532;-86
2023/04/11 04:13:47;;;;;;;5.10;4.10;;;;;;;3.03;100.00;96598.61;109423;1265;22555;-86
2023/04/11 04:16:18;;;;;;;5.10;4.20;;;;;;;3.18;100.00;96599.81;109329;1270;22537;-86
2023/04/11 04:18:49;;;;;;;6.00;4.20;;;;;;;3.59;100.00;96596.11;109111;1260;46485;-86
2023/04/11 04:21:20;;;;;;;6.50;4.40;;;;;;;4.05;100.00;96590.73;109369;1262;24225;-86
2023/04/11 04:23:52;;;;;;;6.20;4.90;;;;;;;4.49;100.00;96592.59;109315;1270;22869;-86
2023/04/11 04:26:24;;;;;;;5.50;4.80;;;;;;;4.98;100.00;96593.08;109354;1265;22704;-86
2023/04/11 04:29:03;;;;;;;5.50;4.50;;;;;;;5.39;100.00;96589.29;109189;1270;84578;-86
2023/04/11 04:31:35;;;;;;;6.20;4.20;;;;;;;5.71;100.00;96589.38;109348;1270;22528;-86
2023/04/11 04:34:08;;;;;;;6.60;4.30;;;;;;;6.02;100.00;96590.39;109292;1270;22523;-86
2023/04/11 04:36:46;;;;;;;6.30;4.60;;;;;;;6.43;100.00;96586.84;109362;1270;22546;-86
2023/04/11 04:39:18;;;;;;;4.70;4.10;;;;;;;6.88;100.00;96591.20;109361;1270;52174;-87
2023/04/11 04:41:56;;;;;;;5.40;3.90;;;;;;;7.55;100.00;96593.58;109404;1247;22584;-87
2023/04/11 04:44:28;;;;;;;4.30;3.90;;;;;;;7.91;99.70;96586.39;109466;1269;22523;-86
2023/04/11 04:46:59;;;;;;;4.90;3.90;;;;;;;7.90;99.14;96583.49;109274;1264;22534;-87
2023/04/11 04:49:31;;;;;;;4.10;3.70;;;;;;;8.18;98.80;96584.90;109331;1268;78576;-87
2023/04/11 04:52:02;;;;;;;4.10;3.50;;;;;;;8.59;98.35;96583.92;109353;1270;22639;-87
2023/04/11 04:54:33;;;;;;;5.00;3.70;;;;;;;9.25;98.90;96585.31;109249;1270;22526;-87
2023/04/11 04:57:07;;;;;;;4.60;3.10;;;;;;;10.00;96.68;96585.39;109256;1270;24550;-87
2023/04/11 04:59:41;;;;;;;5.10;3.30;;;;;;;10.44;93.46;96582.30;109105;1270;112059;-87
2023/04/11 05:02:12;;;;;;;4.20;3.20;;;;;;;10.71;91.07;96585.52;109411;1270;22513;-88
2023/04/11 05:04:44;;;;;;;3.80;2.90;;;;;;;10.99;89.49;96581.15;109234;1264;22547;-88
2023/04/11 05:07:17;;;;;;;3.70;3.00;;;;;;;11.30;87.77;96576.63;109352;1270;22988;-88
2023/04/11 05:09:49;;;;;;;3.50;2.90;;;;;;;11.56;86.04;96573.58;109176;1266;55511;-89
2023/04/11 05:12:25;;;;;;;3.90;2.80;;;;;;;11.70;82.25;96570.62;109382;1267;22495;-88
2023/04/11 05:14:57;;;;;;;4.80;3.20;;;;;;;11.95;81.43;96568.23;109306;1264;25430;-89
2023/04/11 05:17:29;;;;;;;3.00;2.60;;;;;;;12.26;79.88;96568.43;109304;1265;22525;-89
2023/04/11 05:20:01;;;;;;;3.40;2.70;;;;;;;12.25;75.76;96563.81;107647;1271;2020520;-89
2023/04/11 05:22:36;;;;;;;3.20;2.90;;;;;;;11.90;73.59;96563.31;109203;1271;22520;-89
2023/04/11 05:25:11;;;;;;;3.60;2.90;;;;;;;11.98;75.26;96558.52;109174;1271;22532;-89
2023/04/11 05:27:44;;;;;;;3.10;2.80;;;;;;;12.94;77.49;96549.76;109213;1271;25473;-89
2023/04/11 05:30:16;;;;;;;3.40;3.00;;;;;;;13.88;75.55;96535.79;109267;1271;22537;-90
2023/04/11 05:32:48;;;;;;;3.30;2.90;;;;;;;14.33;73.37;96533.64;109276;1271;23014;-90
2023/04/11 05:35:20;;;;;;;3.90;2.80;;;;;;;15.09;74.81;96529.52;109249;1271;22529;-90
2023/04/11 05:37:53;;;;;;;4.60;3.10;;;;;;;16.41;73.03;96516.91;109223;1262;32748;-89
2023/04/11 05:40:24;;;;;;;4.30;3.30;;;;;;;16.43;67.65;96519.43;109387;1264;25303;-90
2023/04/11 05:42:56;;;;;;;3.00;2.70;;;;;;;16.37;67.03;96518.77;109456;1262;22513;-90
2023/04/11 05:45:27;;;;;;;3.20;2.80;;;;;;;17.00;68.95;96513.86;109507;1264;22527;-91
2023/04/11 05:47:58;;;;;;;4.20;3.10;;;;;;;17.55;63.90;96507.61;107922;1270;2117078;-90
2023/04/11 05:50:29;;;;;;;3.10;2.80;;;;;;;17.10;61.81;96507.85;109403;1270;22511;-90
2023/04/11 05:53:01;;;;;;;3.40;2.80;;;;;;;17.40;63.78;96500.23;109126;1271;22520;-90
2023/04/11 05:55:35;;;;;;;3.70;2.60;;;;;;;18.33;63.24;96499.61;109339;1270;23397;-90
2023/04/11 05:58:07;;;;;;;4.90;3.60;;;;;;;18.68;60.68;96493.31;109301;1270;108611;-90
2023/04/11 06:00:40;;;;;;;4.10;2.90;;;;;;;19.52;62.24;96494.66;109169;1264;22533;-91
2023/04/11 06:03:13;;;;;;;4.40;3.10;;;;;;;20.54;60.93;96489.29;109091;1271;22525;-90
2023/04/11 06:05:44;;;;;;;4.90;2.90;;;;;;;21.60;60.51;96480.52;109101;1265;22547;-90
2023/04/11 06:08:18;;;;;;;4.80;3.30;;;;;;;22.27;58.51;96474.45;109409;1265;56313;-91
2023/04/11 06:10:49;;;;;;;3.50;3.20;;;;;;;22.92;56.32;96467.00;109158;1264;22750;-91
2023/04/11 06:13:20;;;;;;;3.30;3.00;;;;;;;23.16;54.31;96463.98;109335;1270;22646;-90
2023/04/11 06:15:52;;;;;;;4.20;3.10;;;;;;;23.27;52.61;96462.98;109260;1270;22544;-90
2023/04/11 06:18:23;;;;;;;4.60;3.20;;;;;;;23.25;51.90;96459.80;109450;1270;60226;-91
2023/04/11 06:20:54;;;;;;;3.30;2.90;;;;;;;23.73;51.35;96460.50;109324;1267;22518;-90
2023/04/11 06:23:27;;;;;;;4.10;3.10;;;;;;;24.33;51.71;96450.94;109201;1271;22527;-90
2023/04/11 06:25:59;;;;;;;3.30;3.00;;;;;;;25.05;50.59;96442.55;109309;1271;22779;-89
2023/04/11 06:28:31;;;;;;;4.00;3.20;;;;;;;25.14;46.81;96435.05;109086;1271;112598;-90
2023/04/11 06:31:06;;;;;;;4.20;3.10;;;;;;;25.33;47.69;96431.91;109159;1272;22952;-90
2023/04/11 06:33:41;;;;;;;3.00;2.70;;;;;;;25.48;45.74;96428.60;109251;1270;22515;-90
2023/04/11 06:36:14;;;;;;;2.70;2.50;;;;;;;25.59;45.89;96420.52;109276;1270;22590;-90
2023/04/11 06:38:46;;;;;;;2.80;2.50;;;;;;;25.84;44.84;96415.14;109146;1270;68073;-90
2023/04/11 06:41:17;;;;;;;3.60;2.70;;;;;;;26.51;46.56;96405.61;109300;1265;22624;-90
2023/04/11 06:43:48;;;;;;;3.50;3.10;;;;;;;27.35;45.19;96400.88;109212;1271;22740;-89
2023/04/11 06:46:23;;;;;;;3.00;2.60;;;;;;;27.58;44.37;96396.25;109227;1264;22520;-90
2023/04/11 06:49:09;;;;;;;3.20;2.80;;;;;;;28.16;44.86;96398.10;109366;1270;112599;-89
2023/04/11 06:51:53;;;;;;;3.70;2.60;;;;;;;29.15;43.80;96397.67;109087;1271;22535;-90
2023/04/11 06:54:24;;;;;;;3.90;3.50;;;;;;;29.77;42.54;96398.04;109411;1270;22518;-90
2023/04/11 06:56:58;;;;;;;4.60;2.90;;;;;;;30.04;41.92;96396.16;109217;1266;25489;-90
2023/04/11 06:59:32;;;;;;;5.20;3.20;;;;;;;30.51;41.04;96390.35;109105;1270;113776;-89
2023/04/11 07:02:03;;;;;;;5.10;3.10;;;;;;;30.64;40.32;96386.81;109455;1270;22545;-90
2023/04/11 07:04:44;;;;;;;3.80;3.50;;;;;;;30.67;39.68;96388.17;109178;1271;22542;-89
2023/04/11 07:07:32;;;;;;;4.80;3.80;;;;;;;30.66;39.63;96387.95;109285;1271;22498;-89
2023/04/11 07:10:03;;;;;;;4.60;3.10;;;;;;;30.83;39.42;96389.34;109256;1270;71885;-89
2023/04/11 07:12:35;;;;;;;3.30;3.00;;;;;;;30.18;38.31;96386.13;109394;1270;24258;-89
2023/04/11 07:15:08;;;;;;;5.20;3.40;;;;;;;29.96;38.72;96390.46;109312;1270;26089;-89
2023/04/11 07:17:41;;;;;;;4.30;3.40;;;;;;;30.83;39.08;96389.23;109224;1264;22543;-89
2023/04/11 07:20:15;;;;;;;5.80;3.50;;;;;;;31.25;36.74;96391.05;109049;1268;46860;-89
2023/04/11 07:22:47;;;;;;;5.00;3.80;;;;;;;30.50;36.27;96391.15;109427;1264;22521;-89
2023/04/11 07:25:21;;;;;;;4.50;3.50;;;;;;;30.42;37.10;96396.02;109411;1270;22585;-89
2023/04/11 07:27:53;;;;;;;3.90;3.50;;;;;;;31.14;37.32;96390.30;109307;1270;22530;-89
2023/04/11 07:30:25;;;;;;;4.90;4.40;;;;;;;31.38;35.08;96389.42;109395;1270;22545;-89
2023/04/11 07:32:58;;;;;;;3.30;3.00;;;;;;;30.78;34.26;96388.70;109280;1270;22528;-89
2023/04/11 07:35:30;;;;;;;4.80;3.50;;;;;;;30.46;33.98;96381.35;109234;1268;22569;-89
2023/04/11 07:38:02;;;;;;;4.30;3.90;;;;;;;30.14;34.20;96383.54;107999;1263;1785157;-88
2023/04/11 07:40:36;;;;;;;4.70;3.70;;;;;;;30.20;34.71;96378.94;109386;1270;22545;-88
2023/04/11 07:43:07;;;;;;;4.30;3.20;;;;;;;31.06;35.76;96372.49;109186;1270;22603;-89
2023/04/11 07:45:40;;;;;;;4.00;3.50;;;;;;;31.70;34.82;96368.61;109154;1271;22518;-88
2023/04/11 07:48:12;;;;;;;4.10;3.60;;;;;;;32.10;34.57;96367.23;109200;1263;141843;-88
2023/04/11 07:50:43;;;;;;;4.10;3.70;;;;;;;32.65;34.46;96369.90;109256;1271;24272;-88
2023/04/11 07:53:15;;;;;;;4.80;3.50;;;;;;;33.06;33.33;96364.29;109188;1271;22516;-88
2023/04/11 07:55:47;;;;;;;5.70;3.80;;;;;;;33.23;32.47;96365.67;109154;1271;22549;-87
2023/04/11 07:58:18;;;;;;;4.30;3.70;;;;;;;32.33;31.02;96358.48;109059;1265;82121;-87
2023/04/11 08:00:51;;;;;;;3.50;3.20;;;;;;;32.05;32.51;96350.58;109163;1268;22680;-87
2023/04/11 08:03:23;;;;;;;4.30;3.70;;;;;;;31.25;32.04;96342.52;109108;1265;25427;-87
2023/04/11 08:05:55;;;;;;;4.40;3.90;;;;;;;30.01;31.81;96342.35;109182;1271;22524;-87
2023/04/11 08:08:28;;;;;;;5.90;3.70;;;;;;;28.95;31.71;96339.55;109120;1264;57242;-84
2023/04/11 08:10:59;;;;;;;5.50;3.80;;;;;;;27.82;33.33;96340.36;109129;1260;22535;-86
2023/04/11 08:13:30;;;;;;;5.00;3.50;;;;;;;27.93;34.43;96336.17;109093;1268;22572;-86
2023/04/11 08:16:03;;;;;;;4.10;3.60;;;;;;;28.37;33.82;96334.05;109148;1271;22520;-86
2023/04/11 08:18:34;;;;;;;6.20;3.60;;;;;;;28.53;33.83;96331.21;109121;1261;64375;-86
2023/04/11 08:21:06;;;;;;;6.50;3.90;;;;;;;28.65;33.62;96331.19;109455;1270;22534;-86
2023/04/11 08:23:38;;;;;;;5.10;4.40;;;;;;;27.93;33.55;96328.30;109429;1270;23167;-86
2023/04/11 08:26:11;;;;;;;5.60;4.20;;;;;;;26.64;33.07;96321.33;109437;1270;22601;-86
2023/04/11 08:28:45;;;;;;;3.90;3.50;;;;;;;25.10;33.95;96314.85;109320;1265;45271;-86
2023/04/11 08:31:18;;;;;;;4.40;3.70;;;;;;;24.74;35.24;96315.24;109139;1265;22526;-85
2023/04/11 08:33:49;;;;;;;5.60;3.60;;;;;;;24.54;35.31;96307.27;108919;1271;23156;-86
2023/04/11 08:36:22;;;;;;;5.30;3.60;;;;;;;24.65;36.51;96305.27;109154;1271;22519;-86
2023/04/11 08:38:55;;;;;;;5.70;3.90;;;;;;;24.81;35.66;96308.71;109088;1271;59001;-85
2023/04/11 08:41:29;;;;;;;3.70;3.40;;;;;;;24.60;36.85;96305.09;109217;1271;22754;-85
2023/04/11 08:44:02;;;;;;;4.50;3.40;;;;;;;24.83;36.83;96298.19;109142;1271;22623;-85
2023/04/11 08:46:41;;;;;;;5.30;3.20;;;;;;;24.57;35.17;96287.46;109158;1265;22552;-85
2023/04/11 08:49:13;;;;;;;4.70;3.10;;;;;;;23.56;35.24;96288.14;109067;1271;69801;-85
2023/04/11 08:51:45;;;;;;;4.30;3.30;;;;;;;23.78;36.69;96283.90;109204;1268;25273;-84
2023/04/11 08:54:17;;;;;;;4.40;3.50;;;;;;;24.65;36.25;96274.05;109164;1268;22556;-84
2023/04/11 08:56:49;;;;;;;5.50;2.90;;;;;;;24.67;35.17;96268.03;109149;1271;22518;-84
2023/04/11 08:59:21;;;;;;;4.10;2.70;;;;;;;24.80;35.49;96260.52;109050;1271;49766;-84
2023/04/11 09:02:06;;;;;;;3.50;2.80;;;;;;;25.11;36.12;96249.70;109147;1271;22509;-84
2023/04/11 09:04:43;;;;;;;4.00;3.30;;;;;;;25.55;36.41;96236.59;109129;1271;22620;-84
2023/04/11 09:07:15;;;;;;;3.20;2.70;;;;;;;25.50;35.76;96228.98;109206;1271;22511;-84
2023/04/11 09:09:47;;;;;;;5.10;2.70;;;;;;;25.02;35.20;96231.75;103978;1266;6920840;-84
2023/04/11 09:12:29;;;;;;;4.80;3.10;;;;;;;23.76;35.18;96230.35;109118;1271;22612;-84
2023/04/11 09:15:17;;;;;;;4.90;3.10;;;;;;;23.44;36.75;96228.02;109117;1271;22530;-84
2023/04/11 09:17:48;;;;;;;4.60;3.10;;;;;;;22.94;37.82;96224.97;109085;1271;22598;-84
2023/04/11 09:20:25;;;;;;;3.80;2.70;;;;;;;22.63;37.36;96218.58;109111;1271;45406;-84
2023/04/11 09:22:57;;;;;;;3.40;3.00;;;;;;;21.26;37.19;96210.29;109094;1271;25295;-83
2023/04/11 09:25:29;;;;;;;3.60;2.60;;;;;;;20.58;38.58;96204.53;109153;1268;22769;-83
2023/04/11 09:28:11;;;;;;;3.70;2.60;;;;;;;20.30;39.55;96197.05;109178;1268;22531;-83
2023/04/11 09:30:51;;;;;;;2.50;2.20;;;;;;;20.25;40.26;96197.21;109177;1271;25398;-83
2023/04/11 09:33:24;;;;;;;2.90;2.60;;;;;;;20.31;41.02;96196.36;109104;1248;25281;-83
2023/04/11 09:35:57;;;;;;;4.20;2.60;;;;;;;20.36;40.74;96202.56;109160;1264;22540;-83
2023/04/11 09:38:33;;;;;;;4.20;2.70;;;;;;;19.96;38.03;96203.77;109062;1268;71415;-83
2023/04/11 09:41:05;;;;;;;3.00;2.60;;;;;;;18.35;38.86;96195.03;109079;1264;22784;-83
2023/04/11 09:43:50;;;;;;;3.80;2.70;;;;;;;17.01;40.22;96186.50;109022;1265;22536;-83
2023/04/11 09:46:22;;;;;;;3.60;3.00;;;;;;;16.50;42.18;96180.96;109135;1271;22510;-83
2023/04/11 09:48:55;;;;;;;3.40;3.10;;;;;;;16.16;42.65;96183.43;108978;1264;78083;-83
2023/04/11 09:51:26;;;;;;;4.50;3.00;;;;;;;16.18;43.49;96178.70;109158;1271;22537;-83
2023/04/11 09:53:59;;;;;;;5.30;3.30;;;;;;;16.12;43.46;96168.94;109143;1271;22530;-83
2023/04/11 09:56:35;;;;;;;3.40;3.10;;;;;;;15.76;44.40;96163.79;109143;1271;22630;-83
2023/04/11 09:59:06;;;;;;;5.90;3.30;;;;;;;15.81;45.00;96163.39;109082;1264;94011;-83
2023/04/11 10:01:38;;;;;;;3.50;2.70;;;;;;;15.92;45.16;96159.94;109124;1271;24234;-83
2023/04/11 10:04:13;;;;;;;4.70;3.40;;;;;;;16.06;44.82;96154.04;109119;1271;24242;-83
2023/04/11 10:06:53;;;;;;;5.40;3.50;;;;;;;15.91;45.34;96154.66;109117;1271;22514;-83
2023/04/11 10:09:26;;;;;;;4.80;3.50;;;;;;;15.92;45.74;96151.44;109162;1271;35037;-83
2023/04/11 10:11:57;;;;;;;4.60;3.30;;;;;;;15.75;45.60;96147.20;109154;1271;22519;-83
2023/04/11 10:14:50;;;;;;;5.80;3.50;;;;;;;15.49;45.97;96146.11;109080;1268;23177;-83
2023/04/11 10:17:23;;;;;;;4.80;4.00;;;;;;;15.39;46.82;96136.73;109153;1271;27822;-83
2023/04/11 10:20:00;;;;;;;4.80;4.10;;;;;;;15.24;46.98;96132.77;109183;1256;22977;-83
2023/04/11 10:23:00;;;;;;;5.10;3.90;;;;;;;15.31;47.45;96138.29;109144;1271;23724;-83
2023/04/11 10:25:47;;;;;;;6.10;4.40;;;;;;;15.56;47.00;96130.92;109112;1268;22545;-83
2023/04/11 10:28:34;;;;;;;6.90;4.70;;;;;;;15.81;47.01;96125.66;109102;1271;28610;-83
2023/04/11 10:31:08;;;;;;;5.90;4.70;;;;;;;15.88;46.96;96117.30;109265;1271;23667;-83
2023/04/11 10:33:40;;;;;;;5.40;4.60;;;;;;;16.00;46.13;96116.36;109161;1271;22535;-83
2023/04/11 10:36:12;;;;;;;8.90;4.90;;;;;;;16.01;46.44;96109.98;109138;1271;24202;-83
2023/04/11 10:38:50;;;;;;;8.20;4.70;;;;;;;16.27;46.44;96111.26;109142;1264;28150;-83
2023/04/11 10:41:28;;;;;;;6.60;4.70;;;;;;;16.15;45.64;96109.69;109117;1271;25246;-82
2023/04/11 10:44:21;;;;;;;6.00;4.70;;;;;;;16.05;44.95;96105.64;109132;1268;25400;-83
2023/04/11 10:46:55;;;;;;;6.60;4.30;;;;;;;15.77;44.28;96105.87;109121;1271;22521;-83
2023/04/11 10:49:37;;;;;;;5.80;4.70;;;;;;;15.67;44.96;96109.70;109116;1271;35131;-83
2023/04/11 10:52:22;;;;;;;6.30;4.80;;;;;;;15.74;45.24;96100.40;109203;1271;22632;-82
2023/04/11 10:55:13;;;;;;;6.10;4.50;;;;;;;15.96;45.24;96097.56;109135;1271;22547;-82
2023/04/11 10:58:07;;;;;;;6.00;4.10;;;;;;;15.92;44.17;96093.46;109140;1271;22561;-82
2023/04/11 11:01:19;;;;;;;6.10;3.90;;;;;;;15.60;44.09;96094.44;109438;1269;22744;-82
2023/04/11 11:03:57;;;;;;;6.80;4.50;;;;;;;15.36;44.08;96089.52;109389;1270;22529;-83
2023/04/11 11:06:29;;;;;;;5.70;3.80;;;;;;;15.06;44.40;96088.84;109461;1264;22533;-83
2023/04/11 11:09:23;;;;;;;5.70;4.20;;;;;;;14.66;45.52;96088.99;109433;1270;28981;-83
2023/04/11 11:12:11;;;;;;;6.80;4.80;;;;;;;14.60;46.52;96086.80;109495;1266;22533;-82
2023/04/11 11:14:44;;;;;;;6.60;4.70;;;;;;;14.76;46.88;96083.11;109441;1270;22942;-82
2023/04/11 11:17:47;;;;;;;5.40;4.50;;;;;;;14.77;46.88;96079.71;109394;1267;26581;-82
2023/04/11 11:20:25;;;;;;;6.20;4.20;;;;;;;14.73;46.78;96071.44;109052;1256;74251;-83
2023/04/11 11:23:04;;;;;;;4.70;3.80;;;;;;;14.76;47.14;96073.23;109299;1270;22520;-83
2023/04/11 11:25:36;;;;;;;6.20;4.30;;;;;;;14.69;46.56;96074.49;109425;1269;22541;-83
2023/04/11 11:28:09;;;;;;;7.00;4.30;;;;;;;14.76;46.97;96069.20;109436;1269;25393;-83
2023/04/11 11:30:49;;;;;;;5.30;4.40;;;;;;;14.82;46.77;96069.38;109380;1263;53276;-83
2023/04/11 11:33:22;;;;;;;7.20;5.00;;;;;;;14.96;47.09;96067.13;109293;1270;22564;-83
2023/04/11 11:35:55;;;;;;;6.50;4.30;;;;;;;15.13;47.14;96061.89;109410;1263;22698;-83
2023/04/11 11:38:30;;;;;;;5.20;4.00;;;;;;;15.26;47.36;96062.00;109461;1268;34546;-83
2023/04/11 11:41:02;;;;;;;6.80;5.00;;;;;;;15.43;47.99;96051.11;109450;1269;22532;-83
2023/04/11 11:43:40;;;;;;;6.70;4.70;;;;;;;15.59;47.43;96051.78;109229;1268;25263;-82
2023/04/11 11:46:14;;;;;;;6.60;4.70;;;;;;;15.65;47.40;96049.66;109224;1252;25596;-82
2023/04/11 11:49:00;;;;;;;5.10;4.50;;;;;;;15.87;47.22;96048.20;109392;1267;63073;-82
2023/04/11 11:51:41;;;;;;;6.90;4.30;;;;;;;16.09;46.69;96041.98;109433;1270;22518;-83
2023/04/11 11:54:13;;;;;;;5.70;4.90;;;;;;;16.06;46.08;96040.41;109476;1270;22532;-83